createdAt,value
2023-10-23T00:01:38.000Z,5.11
2023-10-23T00:04:04.605Z,5.20
2023-10-23T00:06:31.271Z,5.19
2023-10-23T00:08:57.757Z,5.52
2023-10-23T00:11:24.190Z,5.02
2023-10-23T00:13:50.637Z,4.97
2023-10-23T00:16:17.140Z,4.97
2023-10-23T00:18:43.664Z,4.87
2023-10-23T00:21:10.150Z,4.75
2023-10-23T00:23:36.701Z,4.90
2023-10-23T00:26:03.127Z,4.97
2023-10-23T00:28:29.542Z,5.05
2023-10-23T00:30:56.090Z,5.19
2023-10-23T00:33:22.716Z,5.37
2023-10-23T00:35:49.252Z,4.90
2023-10-23T00:38:15.712Z,5.02
2023-10-23T00:40:42.220Z,5.07
2023-10-23T00:43:08.785Z,4.95
2023-10-23T00:45:35.350Z,5.21
2023-10-23T00:48:01.829Z,5.22
2023-10-23T00:50:28.292Z,5.19
2023-10-23T00:52:54.760Z,5.19
2023-10-23T00:55:21.235Z,5.24
2023-10-23T00:57:47.711Z,5.16
2023-10-23T01:00:14.315Z,5.15
2023-10-23T01:02:40.923Z,5.51
2023-10-23T01:05:07.420Z,5.34
2023-10-23T01:07:33.855Z,5.32
2023-10-23T01:10:03.431Z,5.21
2023-10-23T01:12:29.925Z,5.15
2023-10-23T01:14:56.401Z,5.37
2023-10-23T01:17:22.963Z,5.41
2023-10-23T01:22:33.392Z,5.42
2023-10-23T01:25:00.028Z,5.13
2023-10-23T01:27:26.518Z,4.98
2023-10-23T01:29:52.969Z,4.67
2023-10-23T01:32:19.424Z,5.09
2023-10-23T01:34:45.963Z,4.83
2023-10-23T01:37:12.421Z,4.83
2023-10-23T01:39:38.881Z,5.01
2023-10-23T01:42:05.362Z,4.90
2023-10-23T01:44:31.816Z,4.81
2023-10-23T01:46:58.249Z,4.70
2023-10-23T01:49:24.678Z,4.76
2023-10-23T01:51:51.165Z,4.60
2023-10-23T01:54:17.727Z,4.42
2023-10-23T01:56:44.185Z,4.58
2023-10-23T01:59:10.645Z,4.44
2023-10-23T02:01:37.155Z,4.33
2023-10-23T02:04:03.857Z,4.04
2023-10-23T02:06:30.442Z,4.33
2023-10-23T02:08:56.938Z,4.59
2023-10-23T02:11:23.387Z,4.44
2023-10-23T02:13:49.856Z,4.50
2023-10-23T02:16:16.370Z,4.61
2023-10-23T02:18:42.929Z,3.81
2023-10-23T02:21:09.517Z,4.34
2023-10-23T02:23:48.799Z,4.75
2023-10-23T02:26:20.050Z,4.11
2023-10-23T02:28:46.483Z,4.39
2023-10-23T02:31:13.113Z,4.24
2023-10-23T02:33:39.615Z,4.60
2023-10-23T02:36:06.169Z,4.81
2023-10-23T02:38:32.660Z,4.78
2023-10-23T02:40:59.121Z,4.50
2023-10-23T02:43:25.611Z,4.41
2023-10-23T02:45:52.225Z,4.30
2023-10-23T02:48:18.877Z,4.11
2023-10-23T02:50:45.355Z,4.53
2023-10-23T02:53:11.797Z,4.33
2023-10-23T02:55:38.265Z,4.39
2023-10-23T02:58:04.768Z,4.42
2023-10-23T03:00:31.270Z,4.61
2023-10-23T03:02:57.927Z,4.74
2023-10-23T03:05:24.431Z,4.55
2023-10-23T03:07:50.878Z,4.56
2023-10-23T03:10:17.348Z,4.89
2023-10-23T03:12:43.833Z,5.09
2023-10-23T03:15:10.302Z,5.22
2023-10-23T03:17:36.846Z,5.58
2023-10-23T03:20:03.354Z,5.10
2023-10-23T03:22:29.810Z,4.85
2023-10-23T03:24:56.260Z,5.02
2023-10-23T03:27:22.717Z,5.00
2023-10-23T03:29:49.225Z,4.91
2023-10-23T03:32:15.650Z,4.73
2023-10-23T03:34:42.144Z,4.92
2023-10-23T03:37:08.591Z,4.78
2023-10-23T03:39:35.246Z,4.79
2023-10-23T03:42:02.451Z,4.73
2023-10-23T03:44:28.922Z,4.80
2023-10-23T03:46:55.407Z,4.36
2023-10-23T03:49:21.859Z,4.67
2023-10-23T03:51:48.364Z,4.93
2023-10-23T03:54:14.895Z,4.70
2023-10-23T03:56:41.400Z,5.04
2023-10-23T03:59:07.863Z,5.02
2023-10-23T04:01:34.395Z,5.08
2023-10-23T04:04:00.989Z,4.87
2023-10-23T04:06:27.502Z,4.84
2023-10-23T04:08:54.028Z,5.09
2023-10-23T04:11:20.468Z,4.59
2023-10-23T04:13:46.950Z,4.50
2023-10-23T04:16:13.824Z,4.54
2023-10-23T04:18:40.459Z,4.21
2023-10-23T04:21:07.044Z,4.73
2023-10-23T04:23:33.484Z,5.33
2023-10-23T04:25:59.943Z,5.19
2023-10-23T04:28:26.412Z,4.34
2023-10-23T04:30:53.048Z,4.63
2023-10-23T04:33:19.567Z,4.98
2023-10-23T04:35:47.663Z,4.91
2023-10-23T04:38:15.175Z,4.88
2023-10-23T04:40:41.647Z,4.62
2023-10-23T04:43:08.062Z,4.55
2023-10-23T04:45:34.559Z,4.65
2023-10-23T04:48:01.065Z,4.60
2023-10-23T04:50:27.541Z,4.71
2023-10-23T04:52:53.960Z,4.60
2023-10-23T04:55:20.451Z,4.45
2023-10-23T04:57:47.021Z,4.34
2023-10-23T05:00:13.530Z,4.72
2023-10-23T05:02:40.041Z,5.13
2023-10-23T05:05:06.536Z,4.56
2023-10-23T05:07:33.391Z,4.82
2023-10-23T05:09:59.926Z,4.90
2023-10-23T05:12:26.609Z,5.30
2023-10-23T05:14:53.107Z,5.10
2023-10-23T05:17:19.609Z,5.30
2023-10-23T05:19:46.043Z,4.70
2023-10-23T05:22:12.489Z,4.92
2023-10-23T05:24:39.024Z,5.38
2023-10-23T05:27:05.452Z,4.97
2023-10-23T05:29:31.890Z,5.18
2023-10-23T05:31:58.407Z,5.52
2023-10-23T05:34:24.858Z,5.45
2023-10-23T05:36:51.355Z,5.14
2023-10-23T05:39:17.847Z,5.16
2023-10-23T05:41:44.289Z,5.15
2023-10-23T05:44:10.738Z,5.12
2023-10-23T05:46:37.254Z,5.00
2023-10-23T05:49:03.788Z,4.96
2023-10-23T05:51:30.295Z,4.54
2023-10-23T05:53:56.824Z,4.53
2023-10-23T05:56:23.238Z,4.57
2023-10-23T05:58:49.691Z,4.83
2023-10-23T06:01:16.199Z,4.82
2023-10-23T06:03:42.709Z,4.29
2023-10-23T06:06:09.219Z,4.53
2023-10-23T06:08:35.671Z,4.69
2023-10-23T06:11:02.142Z,4.77
2023-10-23T06:13:28.594Z,4.87
2023-10-23T06:15:55.161Z,4.88
2023-10-23T06:18:24.833Z,5.03
2023-10-23T06:20:51.355Z,4.66
2023-10-23T06:23:17.805Z,4.71
2023-10-23T06:25:44.281Z,5.18
2023-10-23T06:28:10.723Z,5.13
2023-10-23T06:30:37.174Z,5.14
2023-10-23T06:33:03.745Z,5.34
2023-10-23T06:35:30.233Z,4.99
2023-10-23T06:37:58.057Z,4.80
2023-10-23T06:40:24.600Z,5.07
2023-10-23T06:42:51.023Z,4.59
2023-10-23T06:45:17.583Z,4.77
2023-10-23T06:47:44.176Z,4.88
2023-10-23T06:50:10.691Z,4.52
2023-10-23T06:52:37.135Z,4.50
2023-10-23T06:55:03.588Z,4.76
2023-10-23T06:57:30.019Z,5.04
2023-10-23T06:59:56.492Z,5.97
2023-10-23T07:02:23.072Z,5.51
2023-10-23T07:04:49.577Z,5.81
2023-10-23T07:07:28.529Z,5.28
2023-10-23T07:09:55.930Z,5.15
2023-10-23T07:12:22.461Z,5.37
2023-10-23T07:14:49.038Z,5.37
2023-10-23T07:17:15.541Z,5.33
2023-10-23T07:19:42.000Z,5.36
2023-10-23T07:22:08.453Z,5.29
2023-10-23T07:24:34.919Z,5.13
2023-10-23T07:27:01.432Z,5.47
2023-10-23T07:29:27.975Z,5.08
2023-10-23T07:31:54.528Z,5.19
2023-10-23T07:34:21.004Z,5.12
2023-10-23T07:36:47.567Z,5.01
2023-10-23T07:39:14.055Z,5.16
2023-10-23T07:41:40.510Z,5.28
2023-10-23T07:44:06.999Z,5.76
2023-10-23T07:46:33.645Z,5.80
2023-10-23T07:49:00.581Z,5.92
2023-10-23T07:51:27.093Z,5.37
2023-10-23T07:53:53.529Z,5.41
2023-10-23T07:56:20.030Z,5.50
2023-10-23T07:58:46.510Z,5.61
2023-10-23T08:01:13.096Z,5.31
2023-10-23T08:03:39.952Z,5.01
2023-10-23T08:06:06.793Z,5.10
2023-10-23T08:08:33.377Z,5.36
2023-10-23T08:10:59.838Z,5.16
2023-10-23T08:13:26.270Z,5.11
2023-10-23T08:15:53.995Z,4.95
2023-10-23T08:18:36.727Z,4.77
2023-10-23T08:21:08.087Z,4.50
2023-10-23T08:23:34.760Z,4.47
2023-10-23T08:26:01.249Z,5.18
2023-10-23T08:28:30.437Z,4.34
2023-10-23T08:31:01.583Z,4.62
2023-10-23T08:33:28.328Z,4.80
2023-10-23T08:35:54.883Z,4.23
2023-10-23T08:38:21.341Z,4.66
2023-10-23T08:40:47.824Z,4.52
2023-10-23T08:43:14.406Z,5.08
2023-10-23T08:45:41.048Z,4.61
2023-10-23T08:48:07.552Z,4.62
2023-10-23T08:50:34.016Z,4.24
2023-10-23T08:53:11.666Z,3.92
2023-10-23T08:55:38.147Z,3.86
2023-10-23T08:58:04.719Z,4.17
2023-10-23T09:00:31.243Z,4.18
2023-10-23T09:02:57.797Z,4.06
2023-10-23T09:05:24.445Z,4.19
2023-10-23T09:07:51.041Z,4.00
2023-10-23T09:10:17.663Z,4.01
2023-10-23T09:12:44.202Z,3.58
2023-10-23T09:15:10.665Z,3.75
2023-10-23T09:17:37.156Z,3.94
2023-10-23T09:20:03.770Z,3.99
2023-10-23T09:22:30.255Z,4.23
2023-10-23T09:24:56.751Z,4.01
2023-10-23T09:27:23.368Z,4.01
2023-10-23T09:29:49.944Z,4.37
2023-10-23T09:32:16.454Z,3.89
2023-10-23T09:34:42.926Z,4.55
2023-10-23T09:37:09.418Z,4.45
2023-10-23T09:39:35.931Z,4.69
2023-10-23T09:42:02.369Z,4.55
2023-10-23T09:44:28.909Z,5.53
2023-10-23T09:46:55.383Z,7.45
2023-10-23T09:49:22.199Z,4.40
2023-10-23T09:51:48.838Z,4.37
2023-10-23T09:54:15.381Z,4.44
2023-10-23T09:56:41.811Z,4.30
2023-10-23T09:59:08.276Z,4.35
2023-10-23T10:01:34.814Z,4.56
2023-10-23T10:04:01.525Z,4.81
2023-10-23T10:06:28.027Z,4.24
2023-10-23T10:08:54.486Z,4.66
2023-10-23T10:11:20.941Z,3.79
2023-10-23T10:13:47.418Z,3.65
2023-10-23T10:16:13.968Z,4.17
2023-10-23T10:18:40.476Z,4.06
2023-10-23T10:21:06.943Z,3.70
2023-10-23T10:23:33.409Z,3.66
2023-10-23T10:25:59.853Z,3.65
2023-10-23T10:28:26.419Z,3.93
2023-10-23T10:30:52.996Z,3.68
2023-10-23T10:34:25.693Z,3.31
2023-10-23T10:36:06.067Z,3.74
2023-10-23T10:38:32.788Z,3.75
2023-10-23T10:40:59.323Z,3.58
2023-10-23T10:43:25.801Z,3.60
2023-10-23T10:45:52.259Z,3.80
2023-10-23T10:48:18.760Z,3.49
2023-10-23T10:50:45.198Z,3.06
2023-10-23T10:53:11.783Z,3.13
2023-10-23T10:55:38.281Z,3.34
2023-10-23T10:58:04.845Z,2.89
2023-10-23T11:00:31.357Z,3.00
2023-10-23T11:02:57.915Z,3.42
2023-10-23T11:05:24.518Z,3.42
2023-10-23T11:07:50.947Z,3.34
2023-10-23T11:10:17.421Z,3.07
2023-10-23T11:12:43.934Z,2.71
2023-10-23T11:15:10.511Z,3.21
2023-10-23T11:17:37.027Z,2.82
2023-10-23T11:20:03.482Z,2.92
2023-10-23T11:22:29.942Z,2.81
2023-10-23T11:24:56.507Z,2.69
2023-10-23T11:27:23.006Z,3.14
2023-10-23T11:29:49.444Z,2.85
2023-10-23T11:32:16.161Z,2.63
2023-10-23T11:34:42.662Z,2.93
2023-10-23T11:37:09.272Z,2.81
2023-10-23T11:39:35.765Z,2.79
2023-10-23T11:42:02.299Z,2.59
2023-10-23T11:44:28.878Z,2.67
2023-10-23T11:46:55.398Z,2.50
2023-10-23T11:49:22.051Z,2.37
2023-10-23T11:51:48.684Z,2.45
2023-10-23T11:54:15.243Z,2.57
2023-10-23T11:56:41.699Z,2.64
2023-10-23T11:59:08.144Z,2.29
2023-10-23T12:01:34.752Z,2.77
2023-10-23T12:04:01.384Z,2.42
2023-10-23T12:06:27.912Z,2.27
2023-10-23T12:08:56.146Z,2.71
2023-10-23T12:11:23.934Z,2.45
2023-10-23T12:13:50.601Z,2.60
2023-10-23T12:16:17.207Z,2.98
2023-10-23T12:18:43.740Z,2.62
2023-10-23T12:21:10.283Z,2.88
2023-10-23T12:23:36.739Z,2.87
2023-10-23T12:26:03.208Z,2.64
2023-10-23T12:28:29.777Z,2.34
2023-10-23T12:30:56.372Z,2.77
2023-10-23T12:33:28.422Z,2.38
2023-10-23T12:35:59.142Z,8.61
2023-10-23T12:38:25.617Z,3.62
2023-10-23T12:40:52.166Z,2.56
2023-10-23T12:43:18.721Z,4.22
2023-10-23T12:45:45.323Z,3.30
2023-10-23T12:48:11.875Z,2.70
2023-10-23T12:50:38.390Z,2.74
2023-10-23T12:53:04.835Z,2.45
2023-10-23T12:55:31.589Z,2.50
2023-10-23T12:57:58.064Z,3.13
2023-10-23T13:00:24.567Z,3.20
2023-10-23T13:02:51.131Z,2.75
2023-10-23T13:05:17.690Z,3.96
2023-10-23T13:07:44.207Z,3.16
2023-10-23T13:10:10.810Z,2.83
2023-10-23T13:12:37.408Z,3.28
2023-10-23T13:15:03.969Z,2.66
2023-10-23T13:17:30.526Z,2.43
2023-10-23T13:19:57.047Z,2.42
2023-10-23T13:22:23.581Z,3.02
2023-10-23T13:24:50.125Z,2.59
2023-10-23T13:27:16.846Z,2.71
2023-10-23T13:29:43.371Z,2.40
2023-10-23T13:32:09.894Z,2.51
2023-10-23T13:34:36.375Z,2.57
2023-10-23T13:37:03.332Z,2.28
2023-10-23T13:39:29.827Z,2.43
2023-10-23T13:41:56.347Z,2.38
2023-10-23T13:44:22.831Z,2.86
2023-10-23T13:46:49.434Z,2.41
2023-10-23T13:49:16.126Z,2.62
2023-10-23T13:51:42.844Z,3.58
2023-10-23T13:54:09.347Z,3.51
2023-10-23T13:56:35.850Z,3.30
2023-10-23T13:59:02.321Z,2.57
2023-10-23T14:01:28.847Z,2.64
2023-10-23T14:03:55.474Z,2.63
2023-10-23T14:06:22.231Z,3.09
2023-10-23T14:09:39.012Z,2.67
2023-10-23T14:12:01.131Z,2.52
2023-10-23T14:14:21.560Z,2.81
2023-10-23T14:16:48.021Z,3.01
2023-10-23T14:19:20.063Z,2.70
2023-10-23T14:21:52.819Z,2.73
2023-10-23T14:24:19.373Z,3.28
2023-10-23T14:26:45.930Z,3.96
2023-10-23T14:29:12.385Z,3.92
2023-10-23T14:31:38.940Z,2.95
2023-10-23T14:34:05.558Z,2.62
2023-10-23T14:36:32.071Z,2.60
2023-10-23T14:38:58.632Z,2.39
2023-10-23T14:41:25.102Z,2.17
2023-10-23T14:43:51.587Z,2.44
2023-10-23T14:46:18.092Z,2.52
2023-10-23T14:48:44.582Z,2.80
2023-10-23T14:51:11.052Z,2.40
2023-10-23T14:53:37.584Z,2.72
2023-10-23T14:56:04.021Z,2.69
2023-10-23T14:58:31.178Z,2.42
2023-10-23T15:00:58.873Z,2.45
2023-10-23T15:03:25.417Z,2.78
2023-10-23T15:05:51.853Z,6.41
2023-10-23T15:08:18.359Z,2.44
2023-10-23T15:10:44.824Z,2.59
2023-10-23T15:13:11.316Z,2.67
2023-10-23T15:15:37.860Z,2.88
2023-10-23T15:18:04.381Z,2.63
2023-10-23T15:20:30.846Z,2.99
2023-10-23T15:22:57.547Z,3.02
2023-10-23T15:25:25.308Z,2.68
2023-10-23T15:27:51.820Z,2.81
2023-10-23T15:30:18.397Z,2.81
2023-10-23T15:32:44.888Z,2.57
2023-10-23T15:35:11.580Z,2.78
2023-10-23T15:37:38.035Z,3.31
2023-10-23T15:40:04.575Z,3.00
2023-10-23T15:42:31.055Z,2.73
2023-10-23T15:44:57.576Z,2.90
2023-10-23T15:47:24.185Z,3.06
2023-10-23T15:49:50.692Z,3.23
2023-10-23T15:52:17.133Z,2.91
2023-10-23T15:54:43.618Z,3.13
2023-10-23T15:57:10.766Z,3.06
2023-10-23T15:59:43.848Z,2.56
2023-10-23T16:02:10.384Z,3.10
2023-10-23T16:04:40.829Z,3.09
2023-10-23T16:07:08.926Z,3.25
2023-10-23T16:09:35.433Z,2.72
2023-10-23T16:12:10.077Z,2.91
2023-10-23T16:14:53.540Z,3.33
2023-10-23T16:17:22.917Z,3.17
2023-10-23T16:19:49.402Z,3.02
2023-10-23T16:22:15.894Z,3.06
2023-10-23T16:24:42.601Z,3.42
2023-10-23T16:27:09.229Z,3.73
2023-10-23T16:29:35.727Z,3.77
2023-10-23T16:32:02.288Z,3.24
2023-10-23T16:34:28.914Z,3.72
2023-10-23T16:36:55.556Z,3.38
2023-10-23T16:39:22.093Z,3.32
2023-10-23T16:41:48.522Z,3.34
2023-10-23T16:44:14.980Z,3.20
2023-10-23T16:46:41.477Z,3.80
2023-10-23T16:49:07.969Z,3.74
2023-10-23T16:51:34.461Z,3.40
2023-10-23T16:54:00.898Z,3.08
2023-10-23T16:56:27.338Z,5.63
2023-10-23T16:58:53.854Z,3.79
2023-10-23T17:01:20.423Z,3.55
2023-10-23T17:03:46.993Z,3.45
2023-10-23T17:06:13.683Z,3.33
2023-10-23T17:08:40.184Z,3.31
2023-10-23T17:11:06.625Z,3.47
2023-10-23T17:13:33.753Z,3.60
2023-10-23T17:16:00.397Z,4.27
2023-10-23T17:18:26.879Z,5.08
2023-10-23T17:20:53.339Z,4.41
2023-10-23T17:23:19.846Z,4.10
2023-10-23T17:25:46.281Z,3.58
2023-10-23T17:28:12.741Z,3.35
2023-10-23T17:30:39.220Z,3.68
2023-10-23T17:33:05.727Z,3.91
2023-10-23T17:35:32.238Z,4.06
2023-10-23T17:38:00.442Z,3.91
2023-10-23T17:40:27.462Z,3.58
2023-10-23T17:42:53.977Z,3.33
2023-10-23T17:45:20.420Z,3.47
2023-10-23T17:47:46.908Z,3.65
2023-10-23T17:50:13.413Z,4.54
2023-10-23T17:52:40.040Z,4.11
2023-10-23T17:55:06.658Z,4.06
2023-10-23T17:57:33.146Z,3.81
2023-10-23T17:59:59.633Z,3.83
2023-10-23T18:02:26.103Z,3.82
2023-10-23T18:04:52.581Z,3.91
2023-10-23T18:07:19.111Z,3.93
2023-10-23T18:09:45.628Z,3.83
2023-10-23T18:12:26.750Z,4.69
2023-10-23T18:14:57.982Z,4.69
2023-10-23T18:17:24.420Z,4.45
2023-10-23T18:19:50.981Z,4.32
2023-10-23T18:22:17.518Z,4.63
2023-10-23T18:24:44.102Z,4.27
2023-10-23T18:27:10.649Z,5.21
2023-10-23T18:29:37.113Z,5.58
2023-10-23T18:32:03.599Z,6.19
2023-10-23T18:34:30.176Z,5.79
2023-10-23T18:36:56.653Z,5.08
2023-10-23T18:39:23.193Z,6.23
2023-10-23T18:41:49.829Z,6.36
2023-10-23T18:44:16.392Z,5.77
2023-10-23T18:46:42.919Z,5.62
2023-10-23T18:49:09.453Z,6.14
2023-10-23T18:51:35.918Z,6.37
2023-10-23T18:54:02.392Z,5.89
2023-10-23T18:56:28.860Z,5.98
2023-10-23T18:58:55.336Z,5.80
2023-10-23T19:01:21.917Z,5.74
2023-10-23T19:03:48.521Z,6.59
2023-10-23T19:06:14.964Z,6.85
2023-10-23T19:08:41.407Z,6.45
2023-10-23T19:11:07.892Z,7.06
2023-10-23T19:13:34.460Z,7.69
2023-10-23T19:16:01.054Z,8.26
2023-10-23T19:18:30.333Z,7.31
2023-10-23T19:20:57.789Z,7.25
2023-10-23T19:23:24.246Z,6.57
2023-10-23T19:25:50.780Z,6.12
2023-10-23T19:28:17.366Z,5.86
2023-10-23T19:30:43.853Z,5.76
2023-10-23T19:33:10.374Z,5.68
2023-10-23T19:35:36.823Z,5.30
2023-10-23T19:38:03.267Z,5.48
2023-10-23T19:40:29.893Z,5.25
2023-10-23T19:42:56.378Z,4.34
2023-10-23T19:45:22.835Z,4.60
2023-10-23T19:47:49.339Z,4.42
2023-10-23T19:50:15.853Z,4.61
2023-10-23T19:52:42.444Z,5.91
2023-10-23T19:55:45.211Z,6.05
2023-10-23T19:57:55.367Z,5.77
2023-10-23T20:00:21.826Z,6.91
2023-10-23T20:02:48.335Z,6.25
2023-10-23T20:05:14.829Z,5.13
2023-10-23T20:07:41.385Z,4.76
2023-10-23T20:10:07.881Z,4.58
2023-10-23T20:12:34.485Z,5.22
2023-10-23T20:15:00.956Z,5.29
2023-10-23T20:17:27.448Z,5.44
2023-10-23T20:19:53.994Z,5.78
2023-10-23T20:22:20.566Z,5.71
2023-10-23T20:24:47.106Z,5.88
2023-10-23T20:27:13.545Z,5.80
2023-10-23T20:29:40.134Z,5.83
2023-10-23T20:32:06.833Z,5.97
2023-10-23T20:34:33.391Z,5.89
2023-10-23T20:36:59.986Z,5.93
2023-10-23T20:39:26.642Z,6.36
2023-10-23T20:41:53.071Z,6.71
2023-10-23T20:44:19.550Z,6.21
2023-10-23T20:46:46.099Z,6.24
2023-10-23T20:49:12.672Z,7.39
2023-10-23T20:51:39.137Z,6.90
2023-10-23T20:54:05.575Z,7.46
2023-10-23T20:56:32.042Z,6.97
2023-10-23T20:58:58.532Z,7.86
2023-10-23T21:01:25.041Z,7.84
2023-10-23T21:03:51.594Z,7.53
2023-10-23T21:06:18.106Z,7.28
2023-10-23T21:08:44.548Z,6.76
2023-10-23T21:11:11.017Z,7.06
2023-10-23T21:13:37.521Z,7.00
2023-10-23T21:16:04.056Z,7.26
2023-10-23T21:18:30.511Z,7.34
2023-10-23T21:20:56.981Z,7.11
2023-10-23T21:23:23.468Z,6.96
2023-10-23T21:25:49.928Z,7.41
2023-10-23T21:28:16.385Z,7.32
2023-10-23T21:30:42.903Z,7.59
2023-10-23T21:33:09.375Z,7.26
2023-10-23T21:35:35.872Z,6.81
2023-10-23T21:38:02.312Z,6.21
2023-10-23T21:40:28.809Z,6.59
2023-10-23T21:42:55.286Z,6.95
2023-10-23T21:45:21.728Z,7.29
2023-10-23T21:47:48.228Z,6.22
2023-10-23T21:50:14.752Z,6.30
2023-10-23T21:52:41.246Z,6.05
2023-10-23T21:55:18.288Z,5.66
2023-10-23T21:57:45.746Z,5.57
2023-10-23T22:00:12.233Z,6.76
2023-10-23T22:02:38.778Z,6.59
2023-10-23T22:05:05.329Z,6.22
2023-10-23T22:07:31.946Z,6.33
2023-10-23T22:09:58.427Z,6.41
2023-10-23T22:12:24.913Z,6.31
2023-10-23T22:14:51.378Z,5.81
2023-10-23T22:17:17.874Z,5.65
2023-10-23T22:19:44.430Z,6.07
2023-10-23T22:22:11.050Z,6.52
2023-10-23T22:24:37.577Z,6.75
2023-10-23T22:27:04.092Z,6.39
2023-10-23T22:29:30.534Z,5.97
2023-10-23T22:31:57.073Z,5.88
2023-10-23T22:34:23.583Z,6.19
2023-10-23T22:37:55.708Z,6.33
2023-10-23T22:39:36.525Z,6.70
2023-10-23T22:42:02.991Z,6.72
2023-10-23T22:44:29.427Z,6.58
2023-10-23T22:46:55.973Z,6.23
2023-10-23T22:49:22.500Z,6.04
2023-10-23T22:51:48.950Z,5.79
2023-10-23T22:54:15.432Z,6.34
2023-10-23T22:56:41.870Z,6.06
2023-10-23T22:59:08.305Z,6.81
2023-10-23T23:01:34.905Z,6.55
2023-10-23T23:04:01.417Z,5.92
2023-10-23T23:06:27.893Z,6.34
2023-10-23T23:08:54.335Z,5.88
2023-10-23T23:11:20.801Z,5.60
2023-10-23T23:13:47.263Z,5.77
2023-10-23T23:16:13.740Z,5.73
2023-10-23T23:18:40.246Z,6.07
2023-10-23T23:21:06.692Z,5.35
2023-10-23T23:23:33.093Z,5.34
2023-10-23T23:25:59.545Z,4.99
2023-10-23T23:28:26.065Z,4.90
2023-10-23T23:30:52.561Z,5.18
2023-10-23T23:33:18.999Z,4.71
2023-10-23T23:35:45.472Z,4.75
2023-10-23T23:38:11.890Z,5.11
2023-10-23T23:40:38.371Z,4.89
2023-10-23T23:43:04.803Z,4.81
2023-10-23T23:45:31.265Z,4.97
2023-10-23T23:47:57.736Z,5.72
2023-10-23T23:50:24.211Z,5.25
2023-10-23T23:52:50.653Z,5.23
2023-10-23T23:55:17.122Z,5.32
2023-10-23T23:57:43.605Z,5.28
